Record high temperature 38.5°C Record low temperature -6.1°C Record high gust 94.9 km/h Record high average 70.9 km/h Record daily rain 58.2 mm Record low windchill -9.9°C Record high barometer 1045.9 hPa Record low barometer 985.2 hPa
Daily high pressure 1017.7 hPa Daily low pressure 1016.2 hPa Daily low windchill 20.5°C Daily high heat index 25.0°C Daily high gust speed 14.8 kmh E Daily high average speed 12.0 kmh E
Stazione meteo Crema centro
ULTIMO RILEVAMENTO ALLE ORE: 05:15 GIORNO: 18 Maggio 2022 prossimo aggiornamento ore: 05:20
Tempo presenteNight time/Dry Temperatura attuale 20.6°C (69.0°F) (Indice calore 22.5°C ), temperatura apparente 21.8°C
Temperatura massima (da mezzanotte)25.0°C alle ore: 00:00 Temperatura minima (da mezzanotte)20.5°C alle ore: 04:57
Forza media vento (dieci minuti)3.3 kmh (1.8 kts) Direzione vento (dieci minuti)E (90°)
Indice calore 22.5°C Massima forza (ultima ora)11.3 kmh (6.1 kts) alle ore: 05:00
Massima forza (da mezzanotte)14.8 kmh (8.0 kts) alle ore: 02:53 Massimo vento 1 minuto (da mezzanotte)12.0 kmh (6.5 kts) alle ore: 02:58
Pioggia (ultima ora)0.0 mm Pioggia (da mezzanotte)0.0 mm (0.00 in.)---
Pioggia Questo mese 0.8 mm (0.03 in.) Pioggia Questo anno 48.8 mm (1.92 in.)
Massima pioggia per minuto (ultima ora)0.0 mm/min Massima pioggia per ora (ultime 6 ore)0.0 mm/ore
Pioggia di ieri 0.0 mm DewPoint 15.8°C (Wet Bulb :17.7°C )
Umidita 74 %, Humidex 25.0°C Pressione S.L.M.1017.6 hPa (QNH 1017.6 hPa
Variazione pressione +0.4 hPa (ultima ora) Tendenza (ultime 1 ore)Stazionaria
Variazione pressione (ultime 12 ore)+3.1 hPa Variazione pressione (ultime 6 ore)+1.8 hPa
Current Solar 0 W/mē
Maximum solar (da mezzanotte) 0 W/mē Minimum solar (da mezzanotte)0 W/mē
Current 00:00 hours of sunshine today, current sky: Night time/Dry
Sunshine hours for the year: 680:48 hrs Sunshine hours for the month: 102:36 hrs
Current evapotranspiration rate 1.4 mm per day. Yesterday's reading 5.9

Questa pagina e` aggiornata con i dati della stazione meteo DAVIS VP Premere Reload o Refresh per facilitare la lettura dei dati aggiornati.

Status report of weather station: IK2CHZ - Crema meteo



Weather report/warning/Metars

Milano / Linate, Italy (LIML) 45-26N 009-17E 103M
May 17, 2022 - 10:50 PM EDT / 2022.05.18 0250 UTC
Wind: from the E (100 degrees) at 5 MPH (4 KT):0
Visibility: greater than 7 mile(s):0
Temperature: 68 F (20 C)
Dew Point: 57 F (14 C)
Relative Humidity: 68%
Pressure (altimeter): 30.06 in. Hg (1018 hPa)
ob: LIML 180250Z AUTO 10004KT 9999 NCD 20/14 Q1018
cycle: 3
Bergamo / Orio Al Serio, Italy (LIME) 45-40N 009-42E 237M
May 17, 2022 - 10:50 PM EDT / 2022.05.18 0250 UTC
Wind: from the N (350 degrees) at 3 MPH (3 KT):0
Visibility: greater than 7 mile(s):0
Temperature: 64 F (18 C)
Dew Point: 53 F (12 C)
Relative Humidity: 67%
Pressure (altimeter): 30.06 in. Hg (1018 hPa)
ob: LIME 180250Z 35003KT CAVOK 18/12 Q1018 NOSIG
cycle: 3
Piacenza, Italy (LIMS) 44-55N 009-44E 138M
May 17, 2022 - 01:55 PM EDT / 2022.05.17 1755 UTC
Wind: from the SSE (150 degrees) at 2 MPH (2 KT):0
Visibility: greater than 7 mile(s):0
Temperature: 80 F (27 C)
Dew Point: 64 F (18 C)
Relative Humidity: 57%
Pressure (altimeter): 29.94 in. Hg (1014 hPa)
ob: LIMS 171755Z 15002KT CAVOK 27/18 Q1014
cycle: 18